• Join FlightAware (Why Join?)
  • Login
  • US Flag 
12:35AM EDT


 

Airport Tracker/Info


-or-


 

Live Flight TrackerFlight Track Log ✈ GJS3618 ✈ 12-Apr-2013 ✈ KORD - KALB

Flight Track Log - Related Links

Times and Time Zones

All times are in EDT time to prevent confusion due to time zone crossing. See the GJS3618 flight status page for this flight to view local times or setup timezone preferences in your user account.

Time Position Orientation Groundspeed Altitude Reporting Facility
EDT Latitude Longitude Course Direction KTS MPH feet Rate Location/Type
09:57AM 42.0000 -87.9333 26° Northeast 159 183 1,200  Level Chicago TRACON
09:58AM 42.0500 -87.9000 26° Northeast 237 273 3,300 2,100 Climbing Chicago TRACON
10:00AM 42.1214 -87.8008 46° Northeast 282 325 7,100 2,400 Climbing Chicago Center
10:01AM 42.1489 -87.6744 74° East 293 337 10,000 2,400 Climbing Chicago Center
10:02AM 42.1733 -87.5592 74° East 314 361 12,100 1,920 Climbing Chicago Center
10:03AM 42.1917 -87.4364 79° East 333 383 14,000 1,680 Climbing Chicago Center
10:04AM 42.1975 -87.2961 87° East 372 428 15,600 1,800 Climbing Chicago Center
10:05AM 42.2042 -87.1522 86° East 382 440 17,700 2,040 Climbing Chicago Center
10:06AM 42.2106 -86.9994 87° East 401 461 19,800 1,800 Climbing Chicago Center
10:07AM 42.2164 -86.8428 87° East 418 481 21,500 1,800 Climbing Chicago Center
10:08AM 42.2228 -86.6703 87° East 422 486 23,600 1,680 Climbing Chicago Center
10:09AM 42.2294 -86.5078 87° East 431 496 25,000 1,380 Climbing Chicago Center
10:10AM 42.2350 -86.3422 87° East 441 507 26,500 1,260 Climbing Chicago Center
10:11AM 42.2417 -86.1394 87° East 450 518 27,700 1,020 Climbing Chicago Center
10:12AM 42.2478 -85.9667 87° East 459 528 28,700 900 Climbing Chicago Center
10:13AM 42.2517 -85.8056 88° East 469 540 29,600 1,020 Climbing Chicago Center
10:14AM 42.2578 -85.6289 87° East 472 543 30,900 1,260 Climbing Chicago Center
10:15AM 42.2642 -85.4169 88° East 476 548 32,300 1,260 Climbing Chicago Center
10:16AM 42.2733 -85.3600 78° East 483 556 32,800 780 Climbing Cleveland Center
10:17AM 42.2869 -85.1814 84° East 477 549 33,500 780 Climbing Cleveland Center
10:18AM 42.3044 -85.0000 83° East 477 549 34,400 960 Climbing Cleveland Center
10:19AM 42.3214 -84.8269 82° East 477 549 35,500 840 Climbing Cleveland Center
10:20AM 42.3575 -84.6353 76° East 477 549 36,100 600 Climbing Cleveland Center
10:21AM 42.4128 -84.4869 63° Northeast 477 549 36,700 420 Climbing Cleveland Center
10:22AM 42.4581 -84.3153 70° East 477 549 37,000 120 Climbing Cleveland Center
10:23AM 42.4950 -84.1344 74° East 477 549 37,000  Level Cleveland Center
10:24AM 42.5092 -83.9408 84° East 491 565 37,000  Level Cleveland Center
10:25AM 42.5250 -83.7472 84° East 513 590 37,000  Level Cleveland Center
10:26AM 42.5367 -83.5506 85° East 518 596 37,000  Level Cleveland Center
10:27AM 42.5497 -83.3594 85° East 518 596 37,000  Level Cleveland Center
10:28AM 42.5606 -83.1653 86° East 518 596 37,000  Level Cleveland Center
10:29AM 42.5708 -82.9711 86° East 518 596 37,000  Level Cleveland Center
10:30AM 42.5831 -82.7800 85° East 518 596 37,000  Level Cleveland Center
10:31AM 42.5950 -82.5828 85° East 518 596 37,000  Level Cleveland Center
10:32AM 42.6044 -82.3914 86° East 518 596 37,000  Level Cleveland Center
10:33AM 42.6136 -82.1969 86° East 518 596 37,000  Level Cleveland Center
10:34AM 42.6244 -82.0053 86° East 518 596 37,000  Level Cleveland Center
10:35AM 42.6350 -81.8081 86° East 518 596 37,000  Level Cleveland Center
10:36AM 42.6453 -81.5994 86° East 513 590 37,000  Level Cleveland Center
10:37AM 42.6553 -81.4075 86° East 513 590 37,000  Level Cleveland Center
10:38AM 42.6628 -81.2128 87° East 513 590 37,000  Level Cleveland Center
10:39AM 42.6719 -81.0208 86° East 516 594 37,000  Level Cleveland Center
10:40AM 42.6808 -80.8317 86° East 516 594 37,000  Level Cleveland Center
10:41AM 42.6894 -80.6311 87° East 522 601 37,000  Level Cleveland Center
10:42AM 42.6956 -80.4589 87° East 516 594 37,000  Level Cleveland Center
10:43AM 42.7017 -80.2667 87° East 506 582 37,000  Level Cleveland Center
10:44AM 42.7092 -80.0747 87° East 506 582 37,000  Level Cleveland Center
10:45AM 42.7186 -79.8822 86° East 506 582 37,000 -540 Level Cleveland Center
10:46AM 42.7236 -79.6900 88° East 506 582 36,000 -1,320 Descending Cleveland Center
10:47AM 42.7281 -79.4978 88° East 506 582 34,400 -1,500 Descending Cleveland Center
10:48AM 42.7325 -79.3083 88° East 500 575 33,000 -960 Descending Cleveland Center
10:49AM 42.7364 -79.1189 88° East 500 575 32,500 -780 Descending Cleveland Center
10:50AM 42.7422 -78.9294 88° East 500 575 31,500 -780 Descending Cleveland Center
10:51AM 42.7456 -78.7397 89° East 494 568 31,000 -300 Descending Cleveland Center
10:52AM 42.7508 -78.5503 88° East 500 575 31,000  Level Cleveland Center
10:53AM 42.7556 -78.3606 88° East 500 575 31,000  Level Cleveland Center
10:54AM 42.7561 -78.1739 90° East 495 570 31,000  Level Cleveland Center
10:55AM 42.7606 -77.9928 88° East 495 570 31,000  Level Cleveland Center
10:56AM 42.7644 -77.8089 88° East 490 564 31,000  Level Cleveland Center
10:57AM 42.7683 -77.6275 88° East 485 558 31,000 -480 Level Cleveland Center
10:59AM 42.7694 -77.3058 90° East 474 545 29,700 -720 Descending Boston Center
10:59AM 42.7706 -77.1306 89° East 469 540 29,000 -360 Descending Boston Center
11:00AM 42.7714 -76.9578 90° East 464 534 29,000  Level Boston Center
11:02AM 42.7736 -76.7883 89° East 458 527 29,000  Level Boston Center
11:02AM 42.7736 -76.6214 90° East 453 521 29,000 -120 Level Boston Center
11:03AM 42.7736 -76.4486 90° East 453 521 28,800 -900 Descending Boston Center
11:04AM 42.7753 -76.2817 89° East 453 521 27,200 -1,680 Descending Boston Center
11:06AM 42.7742 -76.0611 90° East 448 516 25,200 -1,620 Descending Boston Center
11:07AM 42.7606 -75.8933 96° East 443 510 23,700 -1,620 Descending Boston Center
11:08AM 42.7447 -75.7311 98° East 438 504 22,000 -1,740 Descending Boston Center
11:09AM 42.7303 -75.5750 97° East 430 495 20,300 -1,740 Descending Boston Center
11:10AM 42.7158 -75.4186 97° East 417 480 18,600 -1,740 Descending Boston Center
11:11AM 42.7008 -75.2653 98° East 417 480 16,800 -1,800 Descending Boston Center
11:12AM 42.7086 -75.1161 86° East 391 450 15,100 -1,740 Descending Boston Center
11:13AM 42.7411 -74.9731 73° East 391 450 13,400 -1,620 Descending Boston Center
11:14AM 42.7769 -74.8531 68° East 382 440 12,000 -1,680 Descending Boston Center
11:14AM 42.7847 -74.7883 81° East 369 425 11,200 -1,020 Descending Boston Center
11:15AM 42.7989 -74.7011 77° East 368 423 10,900 -240 Descending Boston Center
11:15AM 42.8061 -74.6561 78° East 350 403 11,000  Climbing Boston Center
11:16AM 42.8181 -74.5800 78° East 358 412 10,900 -240 Descending Boston Center
11:17AM 42.8394 -74.4336 79° East 364 419 10,700 -300 Descending Boston Center
11:17AM 42.8464 -74.3856 79° East 366 421 10,500 -840 Descending Boston Center
11:18AM 42.8558 -74.3208 79° East 345 397 9,900 -1,380 Descending Boston Center
11:18AM 42.8653 -74.2586 78° East 307 353 9,000 -1,800 Descending Boston Center
11:19AM 42.8747 -74.1911 79° East 321 369 8,100 -1,680 Descending Boston Center
11:19AM 42.8817 -74.1372 80° East 316 364 7,300 -1,440 Descending Boston Center
11:20AM 42.8886 -74.0864 79° East 309 356 6,700 -1,380 Descending Boston Center
11:20AM 42.8978 -74.0386 75° East 287 330 6,100 -1,680 Descending Boston Center
11:21AM 42.9047 -73.9792 81° East 282 325 5,100 -1,500 Descending Boston Center
11:21AM 42.9094 -73.9425 80° East 235 270 4,600 -1,140 Descending Boston Center
11:22AM 42.9119 -73.9028 85° East 237 273 4,000 -1,200 Descending Boston Center
11:22AM 42.9186 -73.8661 76° East 194 223 3,400 -1,380 Descending Boston Center
11:23AM 42.9067 -73.8292 114° Southeast 186 214 2,600 -1,200 Descending Boston Center
11:23AM 42.8903 -73.8144 147° Southeast 169 194 2,200 -660 Descending Boston Center
11:24AM 42.8694 -73.8083 168° South 147 169 2,000 -240 Descending Boston Center
11:24AM 42.8464 -73.8136 190° South 160 184 2,000 16,680 Level Boston Center
11:25AM 42.8556 -73.7400 80° East 147 169 19,000 -600 Climbing Boston Center
11:25AM 42.8089 -73.8100 228° Southwest 122 140 1,400  Descending Boston Center
11:26AM 42.8353 -73.6914 73° East 147 169 19,000 -720 Climbing Boston Center
11:26AM 42.7756 -73.8064 235° Southwest 116 133 700  Descending Boston Center
11:27AM 42.8150 -73.6403 72° East 147 169 19,000 11,760 Climbing Boston Center
11:28AM 42.7947 -73.5917 120° Southeast 147 169 19,000  Level Boston Center
11:30AM 42.7491 -73.8020 254° West  Level Estimated